createdAt,value
2022-09-06T00:00:47.701Z,19.50
2022-09-06T00:03:36.187Z,19.50
2022-09-06T00:06:24.527Z,19.40
2022-09-06T00:09:14.181Z,19.40
2022-09-06T00:12:02.986Z,19.30
2022-09-06T00:14:51.793Z,19.30
2022-09-06T00:17:40.208Z,19.30
2022-09-06T00:20:28.747Z,19.40
2022-09-06T00:23:17.115Z,19.40
2022-09-06T00:26:07.342Z,19.50
2022-09-06T00:28:55.435Z,19.50
2022-09-06T00:31:43.984Z,19.50
2022-09-06T00:34:32.728Z,19.50
2022-09-06T00:37:21.351Z,19.50
2022-09-06T00:40:11.015Z,19.50
2022-09-06T00:43:00.815Z,19.50
2022-09-06T00:45:50.227Z,19.50
2022-09-06T00:48:40.394Z,19.50
2022-09-06T00:51:31.604Z,19.50
2022-09-06T00:54:20.394Z,19.50
2022-09-06T00:57:09.376Z,19.50
2022-09-06T01:00:00.471Z,19.40
2022-09-06T01:02:49.617Z,19.50
2022-09-06T01:05:50.561Z,19.50
2022-09-06T01:08:55.222Z,19.40
2022-09-06T01:11:54.828Z,19.30
2022-09-06T01:14:54.995Z,19.30
2022-09-06T01:17:59.965Z,19.40
2022-09-06T01:21:05.408Z,19.40
2022-09-06T01:24:35.620Z,19.40
2022-09-06T01:28:08.902Z,19.30
2022-09-06T01:31:11.200Z,19.40
2022-09-06T01:34:14.972Z,19.40
2022-09-06T01:37:10.354Z,19.40
2022-09-06T01:39:59.330Z,19.40
2022-09-06T01:42:50.515Z,19.40
2022-09-06T01:45:51.133Z,19.40
2022-09-06T01:49:04.685Z,19.50
2022-09-06T01:52:05.890Z,19.50
2022-09-06T01:55:03.838Z,19.50
2022-09-06T01:58:12.475Z,19.40
2022-09-06T02:01:07.446Z,19.40
2022-09-06T02:04:03.254Z,19.30
2022-09-06T02:06:59.037Z,19.40
2022-09-06T02:09:52.706Z,19.40
2022-09-06T02:12:45.157Z,19.40
2022-09-06T02:15:36.159Z,19.50
2022-09-06T02:18:29.824Z,19.40
2022-09-06T02:21:23.698Z,19.50
2022-09-06T02:24:15.917Z,19.40
2022-09-06T02:27:05.221Z,19.40
2022-09-06T02:29:53.833Z,19.50
2022-09-06T02:32:48.305Z,19.40
2022-09-06T02:35:44.980Z,19.40
2022-09-06T02:38:36.710Z,19.40
2022-09-06T02:41:26.020Z,19.40
2022-09-06T02:44:14.469Z,19.50
2022-09-06T02:47:03.531Z,19.50
2022-09-06T02:49:52.098Z,19.50
2022-09-06T02:52:40.650Z,19.40
2022-09-06T02:55:30.527Z,19.40
2022-09-06T02:58:18.927Z,19.40
2022-09-06T03:01:07.467Z,19.30
2022-09-06T03:03:56.124Z,19.30
2022-09-06T03:06:44.695Z,19.30
2022-09-06T03:09:33.327Z,19.40
2022-09-06T03:12:23.242Z,19.40
2022-09-06T03:15:12.592Z,19.40
2022-09-06T03:18:01.539Z,19.40
2022-09-06T03:20:50.820Z,19.40
2022-09-06T03:23:40.186Z,19.40
2022-09-06T03:26:30.642Z,19.40
2022-09-06T03:29:20.993Z,19.40
2022-09-06T03:32:09.456Z,19.40
2022-09-06T03:34:58.390Z,19.40
2022-09-06T03:37:46.426Z,19.40
2022-09-06T03:40:35.156Z,19.40
2022-09-06T03:43:25.011Z,19.40
2022-09-06T03:46:14.826Z,19.40
2022-09-06T03:49:03.216Z,19.40
2022-09-06T03:51:51.759Z,19.40
2022-09-06T03:54:40.838Z,19.40
2022-09-06T03:57:29.069Z,19.40
2022-09-06T04:00:18.103Z,19.40
2022-09-06T04:03:07.625Z,19.40
2022-09-06T04:05:55.851Z,19.40
2022-09-06T04:08:44.377Z,19.40
2022-09-06T04:11:32.726Z,19.40
2022-09-06T04:14:21.347Z,19.40
2022-09-06T04:17:09.511Z,19.40
2022-09-06T04:19:59.431Z,19.40
2022-09-06T04:22:47.913Z,19.40
2022-09-06T04:25:36.920Z,19.50
2022-09-06T04:28:26.868Z,19.40
2022-09-06T04:31:15.474Z,19.40
2022-09-06T04:34:03.892Z,19.40
2022-09-06T04:36:53.895Z,19.40
2022-09-06T04:39:42.712Z,19.40
2022-09-06T04:42:31.346Z,19.40
2022-09-06T04:45:19.990Z,19.40
2022-09-06T04:48:08.296Z,19.40
2022-09-06T04:50:56.640Z,19.40
2022-09-06T04:53:47.232Z,19.40
2022-09-06T04:56:35.606Z,19.30
2022-09-06T04:59:24.394Z,19.30
2022-09-06T05:02:12.761Z,19.40
2022-09-06T05:05:00.951Z,19.40
2022-09-06T05:07:49.508Z,19.30
2022-09-06T05:10:39.512Z,19.30
2022-09-06T05:13:28.328Z,19.30
2022-09-06T05:16:16.515Z,19.30
2022-09-06T05:19:05.258Z,19.40
2022-09-06T05:21:53.951Z,19.40
2022-09-06T05:24:42.324Z,19.30
2022-09-06T05:27:32.243Z,19.40
2022-09-06T05:30:20.877Z,19.40
2022-09-06T05:33:08.956Z,19.30
2022-09-06T05:35:57.409Z,19.30
2022-09-06T05:38:45.980Z,19.30
2022-09-06T05:41:34.139Z,19.30
2022-09-06T05:44:23.771Z,19.30
2022-09-06T05:47:12.469Z,19.30
2022-09-06T05:50:00.820Z,19.30
2022-09-06T05:52:49.374Z,19.30
2022-09-06T05:55:42.297Z,19.30
2022-09-06T05:58:31.730Z,19.40
2022-09-06T06:01:23.001Z,19.40
2022-09-06T06:04:11.517Z,19.40
2022-09-06T06:07:00.122Z,19.40
2022-09-06T06:09:48.716Z,19.40
2022-09-06T06:12:37.395Z,19.30
2022-09-06T06:15:25.647Z,19.40
2022-09-06T06:18:15.403Z,19.30
2022-09-06T06:21:12.184Z,19.30
2022-09-06T06:24:02.113Z,19.30
2022-09-06T06:26:52.078Z,19.30
2022-09-06T06:29:40.263Z,19.10
2022-09-06T06:32:28.994Z,19.10
2022-09-06T06:35:18.810Z,19.20
2022-09-06T06:38:07.192Z,19.30
2022-09-06T06:41:00.962Z,19.30
2022-09-06T06:43:53.890Z,19.30
2022-09-06T06:46:42.649Z,19.30
2022-09-06T06:49:30.863Z,19.30
2022-09-06T06:52:21.815Z,19.30
2022-09-06T06:55:11.101Z,19.30
2022-09-06T06:58:02.037Z,19.30
2022-09-06T07:00:50.468Z,19.30
2022-09-06T07:03:39.137Z,19.30
2022-09-06T07:12:48.520Z,19.30
2022-09-06T07:15:36.845Z,19.30
2022-09-06T07:18:25.522Z,19.30
2022-09-06T07:24:23.590Z,19.30
2022-09-06T07:30:21.927Z,19.30
2022-09-06T07:33:10.091Z,19.30
2022-09-06T07:36:00.184Z,19.30
2022-09-06T07:38:50.952Z,19.20
2022-09-06T07:41:39.292Z,19.20
2022-09-06T07:44:29.526Z,19.30
2022-09-06T07:53:36.198Z,19.10
2022-09-06T07:56:25.785Z,19.00
2022-09-06T07:59:14.404Z,19.10
2022-09-06T08:02:04.199Z,19.00
2022-09-06T08:04:53.496Z,19.10
2022-09-06T08:07:41.972Z,19.00
2022-09-06T08:10:31.010Z,19.00
2022-09-06T08:13:19.410Z,19.00
2022-09-06T08:16:10.279Z,18.90
2022-09-06T08:19:01.342Z,18.50
2022-09-06T08:21:49.839Z,18.50
2022-09-06T08:24:38.967Z,18.80
2022-09-06T08:27:27.227Z,18.60
2022-09-06T08:30:16.043Z,18.70
2022-09-06T08:33:05.077Z,18.90
2022-09-06T08:36:00.580Z,19.00
2022-09-06T08:38:49.492Z,19.10
2022-09-06T08:41:47.728Z,19.20
2022-09-06T08:47:41.833Z,19.00
2022-09-06T08:50:31.724Z,19.00
2022-09-06T08:53:21.707Z,19.00
2022-09-06T08:56:16.943Z,18.90
2022-09-06T08:59:08.022Z,18.80
2022-09-06T09:01:59.882Z,18.80
2022-09-06T09:04:53.834Z,19.00
2022-09-06T09:07:46.428Z,18.80
2022-09-06T09:10:43.889Z,18.60
2022-09-06T09:13:36.343Z,18.70
2022-09-06T09:16:25.228Z,18.90
2022-09-06T09:19:15.226Z,19.00
2022-09-06T09:22:04.381Z,19.10
2022-09-06T09:24:54.700Z,19.10
2022-09-06T09:27:45.575Z,19.10
2022-09-06T09:30:49.559Z,19.10
2022-09-06T09:33:39.330Z,19.00
2022-09-06T09:36:27.580Z,19.10
2022-09-06T09:39:16.181Z,19.20
2022-09-06T09:42:04.974Z,19.20
2022-09-06T09:44:54.818Z,19.30
2022-09-06T09:47:44.076Z,19.30
2022-09-06T09:50:34.659Z,19.30
2022-09-06T09:53:24.989Z,19.20
2022-09-06T09:56:16.094Z,19.20
2022-09-06T09:59:07.596Z,19.30
2022-09-06T10:02:00.317Z,19.20
2022-09-06T10:04:50.954Z,19.30
2022-09-06T10:07:45.555Z,19.30
2022-09-06T10:10:39.924Z,19.20
2022-09-06T10:13:31.274Z,19.20
2022-09-06T10:16:44.757Z,19.10
2022-09-06T10:19:43.293Z,19.20
2022-09-06T10:22:33.517Z,19.20
2022-09-06T10:25:49.199Z,19.20
2022-09-06T10:28:41.961Z,19.20
2022-09-06T10:31:59.469Z,19.20
2022-09-06T10:35:21.280Z,19.30
2022-09-06T10:38:32.489Z,19.10
2022-09-06T10:41:41.687Z,18.90
2022-09-06T10:44:45.834Z,18.60
2022-09-06T10:47:44.500Z,18.70
2022-09-06T10:50:46.673Z,18.50
2022-09-06T10:53:45.811Z,18.80
2022-09-06T10:56:40.755Z,19.00
2022-09-06T10:59:36.019Z,19.20
2022-09-06T11:02:37.526Z,19.20
2022-09-06T11:05:44.676Z,19.30
2022-09-06T11:08:49.155Z,19.30
2022-09-06T11:11:45.555Z,19.30
2022-09-06T11:14:36.876Z,19.00
2022-09-06T11:17:33.031Z,19.00
2022-09-06T11:20:29.983Z,19.00
2022-09-06T11:23:45.943Z,19.10
2022-09-06T11:26:37.755Z,18.90
2022-09-06T11:29:28.366Z,18.80
2022-09-06T11:32:33.080Z,18.70
2022-09-06T11:35:27.316Z,18.70
2022-09-06T11:38:25.328Z,18.60
2022-09-06T11:41:18.549Z,18.80
2022-09-06T11:44:07.990Z,19.00
2022-09-06T11:47:01.350Z,19.00
2022-09-06T11:49:49.986Z,18.90
2022-09-06T11:53:12.939Z,18.80
2022-09-06T11:56:26.242Z,18.90
2022-09-06T11:59:29.604Z,19.00
2022-09-06T12:02:37.066Z,19.00
2022-09-06T12:05:31.415Z,19.00
2022-09-06T12:08:33.069Z,18.70
2022-09-06T12:11:37.018Z,18.60
2022-09-06T12:14:36.568Z,18.80
2022-09-06T12:17:25.947Z,18.90
2022-09-06T12:20:53.024Z,18.80
2022-09-06T12:23:44.634Z,18.70
2022-09-06T12:26:55.908Z,18.90
2022-09-06T12:29:58.180Z,19.00
2022-09-06T12:32:49.603Z,19.00
2022-09-06T12:38:41.675Z,18.80
2022-09-06T12:41:31.957Z,18.90
2022-09-06T12:44:30.613Z,19.00
2022-09-06T12:47:25.717Z,19.10
2022-09-06T12:50:20.800Z,18.90
2022-09-06T12:53:24.551Z,18.40
2022-09-06T12:56:13.960Z,18.20
2022-09-06T12:59:14.293Z,18.30
2022-09-06T13:02:10.231Z,18.50
2022-09-06T13:05:05.563Z,18.70
2022-09-06T13:07:56.009Z,18.60
2022-09-06T13:10:47.744Z,18.40
2022-09-06T13:13:36.128Z,18.60
2022-09-06T13:16:26.349Z,18.60
2022-09-06T13:19:19.075Z,18.60
2022-09-06T13:22:10.989Z,18.70
2022-09-06T13:25:00.156Z,18.30
2022-09-06T13:27:51.231Z,18.20
2022-09-06T13:30:49.664Z,18.10
2022-09-06T13:33:39.019Z,18.20
2022-09-06T13:36:31.205Z,18.50
2022-09-06T13:39:34.651Z,18.80
2022-09-06T13:42:27.999Z,18.50
2022-09-06T13:45:26.062Z,18.50
2022-09-06T13:48:28.672Z,18.80
2022-09-06T13:51:18.436Z,19.00
2022-09-06T13:54:10.644Z,19.10
2022-09-06T13:56:59.341Z,19.20
2022-09-06T13:59:47.682Z,19.20
2022-09-06T14:02:37.443Z,19.20
2022-09-06T14:05:26.259Z,19.20
2022-09-06T14:08:14.495Z,19.20
2022-09-06T14:11:04.361Z,19.20
2022-09-06T14:13:53.299Z,19.30
2022-09-06T14:16:41.472Z,19.10
2022-09-06T14:19:30.164Z,18.80
2022-09-06T14:22:18.860Z,18.80
2022-09-06T14:25:08.258Z,18.90
2022-09-06T14:27:57.923Z,19.10
2022-09-06T14:30:46.653Z,19.20
2022-09-06T14:33:35.151Z,19.30
2022-09-06T14:36:25.952Z,19.30
2022-09-06T14:39:14.608Z,19.30
2022-09-06T14:42:03.094Z,19.30
2022-09-06T14:44:53.267Z,19.30
2022-09-06T14:47:41.868Z,19.30
2022-09-06T14:50:31.586Z,19.30
2022-09-06T14:53:39.250Z,19.40
2022-09-06T14:56:28.614Z,19.40
2022-09-06T14:59:17.005Z,19.40
2022-09-06T15:02:06.936Z,19.40
2022-09-06T15:04:56.261Z,19.40
2022-09-06T15:07:44.853Z,19.40
2022-09-06T15:10:33.167Z,19.40
2022-09-06T15:13:21.754Z,19.40
2022-09-06T15:16:11.964Z,19.40
2022-09-06T15:19:03.021Z,19.40
2022-09-06T15:21:51.981Z,19.40
2022-09-06T15:24:40.826Z,19.40
2022-09-06T15:27:30.168Z,19.40
2022-09-06T15:30:18.915Z,19.30
2022-09-06T15:33:10.238Z,19.30
2022-09-06T15:36:00.850Z,19.30
2022-09-06T15:38:50.796Z,19.40
2022-09-06T15:41:40.875Z,19.40
2022-09-06T15:44:29.480Z,19.40
2022-09-06T15:47:18.194Z,19.40
2022-09-06T15:50:07.222Z,19.40
2022-09-06T15:52:56.833Z,19.40
2022-09-06T15:55:58.082Z,19.40
2022-09-06T15:58:47.006Z,19.40
2022-09-06T16:01:36.999Z,19.40
2022-09-06T16:04:25.100Z,19.40
2022-09-06T16:07:13.647Z,19.40
2022-09-06T16:10:03.761Z,19.40
2022-09-06T16:12:54.642Z,19.40
2022-09-06T16:15:43.545Z,19.40
2022-09-06T16:18:32.898Z,19.40
2022-09-06T16:21:24.128Z,19.40
2022-09-06T16:24:14.903Z,19.50
2022-09-06T16:27:04.882Z,19.40
2022-09-06T16:29:53.473Z,19.40
2022-09-06T16:32:41.910Z,19.50
2022-09-06T16:35:30.538Z,19.40
2022-09-06T16:38:19.898Z,19.50
2022-09-06T16:41:14.537Z,19.50
2022-09-06T16:44:04.764Z,19.50
2022-09-06T16:46:55.532Z,19.50
2022-09-06T16:49:44.572Z,19.40
2022-09-06T16:52:33.146Z,19.50
2022-09-06T16:55:21.844Z,19.50
2022-09-06T16:58:10.506Z,19.50
2022-09-06T17:01:01.195Z,19.50
2022-09-06T17:03:50.054Z,19.50
2022-09-06T17:06:44.809Z,19.50
2022-09-06T17:09:35.327Z,19.50
2022-09-06T17:12:24.467Z,19.50
2022-09-06T17:15:13.197Z,19.50
2022-09-06T17:18:02.245Z,19.40
2022-09-06T17:20:57.547Z,19.50
2022-09-06T17:23:45.764Z,19.50
2022-09-06T17:26:37.259Z,19.40
2022-09-06T17:29:25.976Z,19.50
2022-09-06T17:32:14.699Z,19.50
2022-09-06T17:35:04.973Z,19.50
2022-09-06T17:37:53.654Z,19.40
2022-09-06T17:40:42.174Z,19.50
2022-09-06T17:43:30.716Z,19.50
2022-09-06T17:46:19.123Z,19.40
2022-09-06T17:49:08.207Z,19.50
2022-09-06T17:51:58.568Z,19.40
2022-09-06T17:54:48.092Z,19.50
2022-09-06T17:57:36.311Z,19.50
2022-09-06T18:00:26.194Z,19.50
2022-09-06T18:03:14.304Z,19.40
2022-09-06T18:06:07.677Z,19.40
2022-09-06T18:08:59.998Z,19.40
2022-09-06T18:11:48.864Z,19.40
2022-09-06T18:14:37.300Z,19.40
2022-09-06T18:17:27.006Z,19.40
2022-09-06T18:20:15.918Z,19.40
2022-09-06T18:23:04.392Z,19.40
2022-09-06T18:25:59.200Z,19.40
2022-09-06T18:28:47.847Z,19.40
2022-09-06T18:31:36.924Z,19.40
2022-09-06T18:34:25.174Z,19.40
2022-09-06T18:37:14.824Z,19.40
2022-09-06T18:40:03.420Z,19.40
2022-09-06T18:42:53.557Z,19.40
2022-09-06T18:45:43.112Z,19.40
2022-09-06T18:48:33.154Z,19.40
2022-09-06T18:51:21.954Z,19.40
2022-09-06T18:54:11.184Z,19.30
2022-09-06T18:57:00.091Z,19.40
2022-09-06T18:59:50.946Z,19.30
2022-09-06T19:02:39.291Z,19.40
2022-09-06T19:05:27.668Z,19.40
2022-09-06T19:08:15.985Z,19.40
2022-09-06T19:11:07.996Z,19.40
2022-09-06T19:13:57.955Z,19.40
2022-09-06T19:16:48.802Z,19.40
2022-09-06T19:19:37.242Z,19.40
2022-09-06T19:22:26.793Z,19.30
2022-09-06T19:25:15.887Z,19.30
2022-09-06T19:28:04.639Z,19.40
2022-09-06T19:30:52.989Z,19.30
2022-09-06T19:33:43.435Z,19.30
2022-09-06T19:36:32.939Z,19.30
2022-09-06T19:39:21.893Z,19.30
2022-09-06T19:42:10.865Z,19.30
2022-09-06T19:44:59.624Z,19.30
2022-09-06T19:47:47.831Z,19.30
2022-09-06T19:50:38.918Z,19.30
2022-09-06T19:53:27.608Z,19.30
2022-09-06T19:56:18.570Z,19.40
2022-09-06T19:59:09.281Z,19.40
2022-09-06T20:01:57.617Z,19.30
2022-09-06T20:04:46.872Z,19.30
2022-09-06T20:07:36.661Z,19.30
2022-09-06T20:10:26.122Z,19.30
2022-09-06T20:13:14.215Z,19.30
2022-09-06T20:16:04.336Z,19.30
2022-09-06T20:18:53.103Z,19.30
2022-09-06T20:21:41.892Z,19.30
2022-09-06T20:24:31.564Z,19.30
2022-09-06T20:27:20.335Z,19.30
2022-09-06T20:30:09.697Z,19.30
2022-09-06T20:32:59.220Z,19.30
2022-09-06T20:35:55.989Z,19.30
2022-09-06T20:38:45.525Z,19.30
2022-09-06T20:41:35.408Z,19.30
2022-09-06T20:44:24.200Z,19.30
2022-09-06T20:47:12.817Z,19.30
2022-09-06T20:50:02.089Z,19.30
2022-09-06T20:52:50.355Z,19.30
2022-09-06T20:55:38.767Z,19.30
2022-09-06T20:58:29.453Z,19.30
2022-09-06T21:01:22.645Z,19.30
2022-09-06T21:04:13.389Z,19.40
2022-09-06T21:07:02.058Z,19.30
2022-09-06T21:09:50.410Z,19.30
2022-09-06T21:12:38.691Z,19.30
2022-09-06T21:15:29.708Z,19.30
2022-09-06T21:18:18.325Z,19.30
2022-09-06T21:21:08.867Z,19.40
2022-09-06T21:23:57.509Z,19.40
2022-09-06T21:26:46.496Z,19.40
2022-09-06T21:29:34.993Z,19.40
2022-09-06T21:32:25.393Z,19.40
2022-09-06T21:35:14.092Z,19.40
2022-09-06T21:38:02.569Z,19.30
2022-09-06T21:40:50.919Z,19.40
2022-09-06T21:43:39.966Z,19.40
2022-09-06T21:46:32.926Z,19.40
2022-09-06T21:49:23.203Z,19.40
2022-09-06T21:52:11.983Z,19.40
2022-09-06T21:55:00.571Z,19.40
2022-09-06T21:57:49.293Z,19.40
2022-09-06T22:00:38.281Z,19.40
2022-09-06T22:03:27.083Z,19.40
2022-09-06T22:06:20.271Z,19.40
2022-09-06T22:09:12.978Z,19.40
2022-09-06T22:12:01.620Z,19.40
2022-09-06T22:14:50.152Z,19.40
2022-09-06T22:17:39.239Z,19.40
2022-09-06T22:20:27.486Z,19.40
2022-09-06T22:23:17.362Z,19.40
2022-09-06T22:26:08.290Z,19.40
2022-09-06T22:28:58.300Z,19.40
2022-09-06T22:31:46.891Z,19.40
2022-09-06T22:34:35.215Z,19.30
2022-09-06T22:37:23.651Z,19.30
2022-09-06T22:40:13.926Z,19.30
2022-09-06T22:43:02.512Z,19.30
2022-09-06T22:45:52.153Z,19.30
2022-09-06T22:48:41.178Z,19.30
2022-09-06T22:51:29.475Z,19.30
2022-09-06T22:54:17.992Z,19.30
2022-09-06T22:57:07.982Z,19.30
2022-09-06T22:59:56.484Z,19.30
2022-09-06T23:02:45.060Z,19.30
2022-09-06T23:05:33.565Z,19.30
2022-09-06T23:08:22.075Z,19.30
2022-09-06T23:11:12.834Z,19.30
2022-09-06T23:14:03.381Z,19.30
2022-09-06T23:16:51.864Z,19.30
2022-09-06T23:19:40.559Z,19.30
2022-09-06T23:22:29.407Z,19.30
2022-09-06T23:25:18.672Z,19.30
2022-09-06T23:28:06.996Z,19.30
2022-09-06T23:30:56.940Z,19.30
2022-09-06T23:33:45.604Z,19.30
2022-09-06T23:36:34.305Z,19.30
2022-09-06T23:39:23.122Z,19.30
2022-09-06T23:42:11.167Z,19.30
2022-09-06T23:44:59.687Z,19.30
2022-09-06T23:47:49.732Z,19.30
2022-09-06T23:50:37.983Z,19.30
2022-09-06T23:53:26.759Z,19.30
2022-09-06T23:56:15.802Z,19.30
2022-09-06T23:59:04.031Z,19.20
